sensor_id;sensor_type;location;lat;lon;timestamp;P1;durP1;ratioP1;P2;durP2;ratioP2
16890;SDS011;8562;52.246;20.966;2023-04-01T00:01:42;9.60;;;7.13;;
16890;SDS011;8562;52.246;20.966;2023-04-01T00:04:07;10.83;;;7.73;;
16890;SDS011;8562;52.246;20.966;2023-04-01T00:06:33;10.33;;;7.40;;
16890;SDS011;8562;52.246;20.966;2023-04-01T00:08:58;14.03;;;6.97;;
16890;SDS011;8562;52.246;20.966;2023-04-01T00:11:23;12.07;;;7.17;;
16890;SDS011;8562;52.246;20.966;2023-04-01T00:13:49;9.93;;;6.90;;
16890;SDS011;8562;52.246;20.966;2023-04-01T00:16:14;11.10;;;6.77;;
16890;SDS011;8562;52.246;20.966;2023-04-01T00:18:40;10.47;;;6.83;;
16890;SDS011;8562;52.246;20.966;2023-04-01T00:21:06;8.83;;;7.53;;
16890;SDS011;8562;52.246;20.966;2023-04-01T00:23:31;9.87;;;6.20;;
16890;SDS011;8562;52.246;20.966;2023-04-01T00:25:59;8.40;;;7.13;;
16890;SDS011;8562;52.246;20.966;2023-04-01T00:28:24;13.27;;;8.13;;
16890;SDS011;8562;52.246;20.966;2023-04-01T00:30:50;12.47;;;7.93;;
16890;SDS011;8562;52.246;20.966;2023-04-01T00:33:15;11.50;;;8.17;;
16890;SDS011;8562;52.246;20.966;2023-04-01T00:35:41;11.20;;;7.97;;
16890;SDS011;8562;52.246;20.966;2023-04-01T00:38:07;13.00;;;7.90;;
16890;SDS011;8562;52.246;20.966;2023-04-01T00:40:36;11.13;;;7.63;;
16890;SDS011;8562;52.246;20.966;2023-04-01T00:43:02;10.70;;;8.00;;
16890;SDS011;8562;52.246;20.966;2023-04-01T00:47:54;12.97;;;7.80;;
16890;SDS011;8562;52.246;20.966;2023-04-01T00:50:20;12.33;;;7.90;;
16890;SDS011;8562;52.246;20.966;2023-04-01T00:52:46;13.07;;;8.93;;
16890;SDS011;8562;52.246;20.966;2023-04-01T00:55:12;11.37;;;7.77;;
16890;SDS011;8562;52.246;20.966;2023-04-01T00:57:38;12.63;;;7.50;;
16890;SDS011;8562;52.246;20.966;2023-04-01T01:00:06;9.80;;;7.80;;
16890;SDS011;8562;52.246;20.966;2023-04-01T01:02:32;10.33;;;7.70;;
16890;SDS011;8562;52.246;20.966;2023-04-01T01:04:58;10.77;;;7.57;;
16890;SDS011;8562;52.246;20.966;2023-04-01T01:07:35;14.47;;;8.93;;
16890;SDS011;8562;52.246;20.966;2023-04-01T01:12:31;9.93;;;7.60;;
16890;SDS011;8562;52.246;20.966;2023-04-01T01:15:07;9.83;;;7.47;;
16890;SDS011;8562;52.246;20.966;2023-04-01T01:17:56;12.27;;;8.00;;
16890;SDS011;8562;52.246;20.966;2023-04-01T01:21:14;10.63;;;7.93;;
16890;SDS011;8562;52.246;20.966;2023-04-01T01:31:11;9.17;;;7.57;;
16890;SDS011;8562;52.246;20.966;2023-04-01T01:36:04;13.70;;;8.43;;
16890;SDS011;8562;52.246;20.966;2023-04-01T01:38:32;11.87;;;7.90;;
16890;SDS011;8562;52.246;20.966;2023-04-01T01:41:01;11.77;;;8.13;;
16890;SDS011;8562;52.246;20.966;2023-04-01T01:43:30;12.10;;;8.93;;
16890;SDS011;8562;52.246;20.966;2023-04-01T01:45:57;11.93;;;8.23;;
16890;SDS011;8562;52.246;20.966;2023-04-01T01:48:23;12.37;;;9.03;;
16890;SDS011;8562;52.246;20.966;2023-04-01T01:50:49;11.80;;;8.60;;
16890;SDS011;8562;52.246;20.966;2023-04-01T01:53:16;14.10;;;9.00;;
16890;SDS011;8562;52.246;20.966;2023-04-01T01:55:45;15.27;;;8.70;;
16890;SDS011;8562;52.246;20.966;2023-04-01T01:58:25;12.47;;;8.27;;
16890;SDS011;8562;52.246;20.966;2023-04-01T02:01:35;12.17;;;8.57;;
16890;SDS011;8562;52.246;20.966;2023-04-01T02:03:41;14.23;;;9.93;;
16890;SDS011;8562;52.246;20.966;2023-04-01T02:06:08;14.97;;;9.30;;
16890;SDS011;8562;52.246;20.966;2023-04-01T02:08:35;14.73;;;8.90;;
16890;SDS011;8562;52.246;20.966;2023-04-01T02:11:03;14.80;;;9.17;;
16890;SDS011;8562;52.246;20.966;2023-04-01T02:16:06;12.57;;;9.10;;
16890;SDS011;8562;52.246;20.966;2023-04-01T02:18:33;12.03;;;9.47;;
16890;SDS011;8562;52.246;20.966;2023-04-01T02:21:00;13.33;;;9.53;;
16890;SDS011;8562;52.246;20.966;2023-04-01T02:23:26;11.60;;;8.83;;
16890;SDS011;8562;52.246;20.966;2023-04-01T02:25:51;16.30;;;11.50;;
16890;SDS011;8562;52.246;20.966;2023-04-01T02:28:17;16.90;;;11.10;;
16890;SDS011;8562;52.246;20.966;2023-04-01T02:30:45;17.20;;;10.73;;
16890;SDS011;8562;52.246;20.966;2023-04-01T02:33:11;15.67;;;10.47;;
16890;SDS011;8562;52.246;20.966;2023-04-01T02:35:36;13.30;;;10.73;;
16890;SDS011;8562;52.246;20.966;2023-04-01T02:38:06;15.50;;;10.10;;
16890;SDS011;8562;52.246;20.966;2023-04-01T02:40:48;17.60;;;11.37;;
16890;SDS011;8562;52.246;20.966;2023-04-01T02:43:14;17.20;;;10.90;;
16890;SDS011;8562;52.246;20.966;2023-04-01T02:45:41;15.43;;;10.90;;
16890;SDS011;8562;52.246;20.966;2023-04-01T02:48:06;13.13;;;9.80;;
16890;SDS011;8562;52.246;20.966;2023-04-01T02:50:32;19.37;;;11.67;;
16890;SDS011;8562;52.246;20.966;2023-04-01T02:52:57;14.93;;;10.80;;
16890;SDS011;8562;52.246;20.966;2023-04-01T02:55:22;14.50;;;10.77;;
16890;SDS011;8562;52.246;20.966;2023-04-01T02:57:48;15.17;;;9.20;;
16890;SDS011;8562;52.246;20.966;2023-04-01T03:00:13;15.47;;;11.10;;
16890;SDS011;8562;52.246;20.966;2023-04-01T03:02:39;14.90;;;10.83;;
16890;SDS011;8562;52.246;20.966;2023-04-01T03:05:05;16.20;;;9.97;;
16890;SDS011;8562;52.246;20.966;2023-04-01T03:07:30;15.87;;;9.83;;
16890;SDS011;8562;52.246;20.966;2023-04-01T03:09:56;15.20;;;9.23;;
16890;SDS011;8562;52.246;20.966;2023-04-01T03:12:21;15.00;;;9.87;;
16890;SDS011;8562;52.246;20.966;2023-04-01T03:14:50;17.37;;;11.20;;
16890;SDS011;8562;52.246;20.966;2023-04-01T03:17:15;14.80;;;9.83;;
16890;SDS011;8562;52.246;20.966;2023-04-01T03:19:41;17.97;;;11.00;;
16890;SDS011;8562;52.246;20.966;2023-04-01T03:22:11;19.37;;;11.60;;
16890;SDS011;8562;52.246;20.966;2023-04-01T03:24:37;20.93;;;11.67;;
16890;SDS011;8562;52.246;20.966;2023-04-01T03:27:02;13.30;;;10.07;;
16890;SDS011;8562;52.246;20.966;2023-04-01T03:29:28;19.60;;;11.00;;
16890;SDS011;8562;52.246;20.966;2023-04-01T03:31:54;16.50;;;9.93;;
16890;SDS011;8562;52.246;20.966;2023-04-01T03:34:23;14.47;;;8.93;;
16890;SDS011;8562;52.246;20.966;2023-04-01T03:36:48;15.37;;;10.17;;
16890;SDS011;8562;52.246;20.966;2023-04-01T03:39:14;16.70;;;10.27;;
16890;SDS011;8562;52.246;20.966;2023-04-01T03:41:40;13.30;;;9.33;;
16890;SDS011;8562;52.246;20.966;2023-04-01T03:44:06;15.87;;;9.47;;
16890;SDS011;8562;52.246;20.966;2023-04-01T03:46:31;12.90;;;9.50;;
16890;SDS011;8562;52.246;20.966;2023-04-01T03:48:57;11.67;;;8.93;;
16890;SDS011;8562;52.246;20.966;2023-04-01T03:51:22;13.50;;;9.37;;
16890;SDS011;8562;52.246;20.966;2023-04-01T03:53:48;14.40;;;9.43;;
16890;SDS011;8562;52.246;20.966;2023-04-01T03:56:13;14.03;;;8.90;;
16890;SDS011;8562;52.246;20.966;2023-04-01T03:58:39;15.00;;;9.40;;
16890;SDS011;8562;52.246;20.966;2023-04-01T04:01:19;14.00;;;9.60;;
16890;SDS011;8562;52.246;20.966;2023-04-01T04:03:51;14.90;;;9.17;;
16890;SDS011;8562;52.246;20.966;2023-04-01T04:06:17;11.87;;;7.90;;
16890;SDS011;8562;52.246;20.966;2023-04-01T04:08:43;14.37;;;10.07;;
16890;SDS011;8562;52.246;20.966;2023-04-01T04:11:09;16.37;;;8.60;;
16890;SDS011;8562;52.246;20.966;2023-04-01T04:13:38;11.50;;;7.97;;
16890;SDS011;8562;52.246;20.966;2023-04-01T04:16:03;11.93;;;8.53;;
16890;SDS011;8562;52.246;20.966;2023-04-01T04:18:32;13.80;;;8.63;;
16890;SDS011;8562;52.246;20.966;2023-04-01T04:20:58;13.43;;;9.23;;
16890;SDS011;8562;52.246;20.966;2023-04-01T04:23:23;13.67;;;10.40;;
16890;SDS011;8562;52.246;20.966;2023-04-01T04:25:53;12.70;;;9.03;;
16890;SDS011;8562;52.246;20.966;2023-04-01T04:28:18;11.30;;;8.17;;
16890;SDS011;8562;52.246;20.966;2023-04-01T04:30:44;14.43;;;8.40;;
16890;SDS011;8562;52.246;20.966;2023-04-01T04:33:09;11.60;;;8.00;;
16890;SDS011;8562;52.246;20.966;2023-04-01T04:35:35;11.53;;;8.57;;
16890;SDS011;8562;52.246;20.966;2023-04-01T04:38:00;12.93;;;8.70;;
16890;SDS011;8562;52.246;20.966;2023-04-01T04:40:25;14.40;;;8.30;;
16890;SDS011;8562;52.246;20.966;2023-04-01T04:42:50;13.00;;;7.43;;
16890;SDS011;8562;52.246;20.966;2023-04-01T04:45:16;11.13;;;7.87;;
16890;SDS011;8562;52.246;20.966;2023-04-01T04:47:50;9.37;;;7.50;;
16890;SDS011;8562;52.246;20.966;2023-04-01T04:50:16;12.73;;;7.47;;
16890;SDS011;8562;52.246;20.966;2023-04-01T04:52:42;11.17;;;7.83;;
16890;SDS011;8562;52.246;20.966;2023-04-01T04:55:07;10.70;;;7.70;;
16890;SDS011;8562;52.246;20.966;2023-04-01T04:57:33;11.90;;;7.50;;
16890;SDS011;8562;52.246;20.966;2023-04-01T04:59:58;10.80;;;6.97;;
16890;SDS011;8562;52.246;20.966;2023-04-01T05:02:45;11.70;;;6.70;;
16890;SDS011;8562;52.246;20.966;2023-04-01T05:05:10;11.23;;;6.23;;
16890;SDS011;8562;52.246;20.966;2023-04-01T05:07:35;10.33;;;5.93;;
16890;SDS011;8562;52.246;20.966;2023-04-01T05:10:01;11.47;;;6.17;;
16890;SDS011;8562;52.246;20.966;2023-04-01T05:12:27;10.90;;;6.80;;
16890;SDS011;8562;52.246;20.966;2023-04-01T05:14:59;6.30;;;5.23;;
16890;SDS011;8562;52.246;20.966;2023-04-01T05:17:24;8.43;;;6.40;;
16890;SDS011;8562;52.246;20.966;2023-04-01T05:19:50;7.70;;;5.83;;
16890;SDS011;8562;52.246;20.966;2023-04-01T05:22:16;7.97;;;5.17;;
16890;SDS011;8562;52.246;20.966;2023-04-01T05:24:42;5.73;;;4.97;;
16890;SDS011;8562;52.246;20.966;2023-04-01T05:27:07;7.53;;;4.73;;
16890;SDS011;8562;52.246;20.966;2023-04-01T05:29:36;7.60;;;6.00;;
16890;SDS011;8562;52.246;20.966;2023-04-01T05:32:05;6.90;;;4.90;;
16890;SDS011;8562;52.246;20.966;2023-04-01T05:34:30;9.00;;;5.07;;
16890;SDS011;8562;52.246;20.966;2023-04-01T05:36:56;7.97;;;5.43;;
16890;SDS011;8562;52.246;20.966;2023-04-01T05:39:21;6.37;;;4.63;;
16890;SDS011;8562;52.246;20.966;2023-04-01T05:41:47;8.40;;;5.50;;
16890;SDS011;8562;52.246;20.966;2023-04-01T05:44:12;8.03;;;5.27;;
16890;SDS011;8562;52.246;20.966;2023-04-01T05:46:38;5.67;;;5.03;;
16890;SDS011;8562;52.246;20.966;2023-04-01T05:49:24;7.30;;;5.37;;
16890;SDS011;8562;52.246;20.966;2023-04-01T05:51:50;5.97;;;4.40;;
16890;SDS011;8562;52.246;20.966;2023-04-01T05:54:17;6.40;;;4.70;;
16890;SDS011;8562;52.246;20.966;2023-04-01T05:56:43;6.27;;;4.67;;
16890;SDS011;8562;52.246;20.966;2023-04-01T05:59:09;7.80;;;4.77;;
16890;SDS011;8562;52.246;20.966;2023-04-01T06:01:35;9.93;;;5.43;;
16890;SDS011;8562;52.246;20.966;2023-04-01T06:04:00;8.87;;;4.47;;
16890;SDS011;8562;52.246;20.966;2023-04-01T06:06:27;5.57;;;4.07;;
16890;SDS011;8562;52.246;20.966;2023-04-01T06:08:56;4.97;;;3.37;;
16890;SDS011;8562;52.246;20.966;2023-04-01T06:11:34;4.73;;;3.63;;
16890;SDS011;8562;52.246;20.966;2023-04-01T06:14:07;5.67;;;4.10;;
16890;SDS011;8562;52.246;20.966;2023-04-01T06:27:23;5.10;;;3.90;;
16890;SDS011;8562;52.246;20.966;2023-04-01T06:32:26;5.77;;;3.77;;
16890;SDS011;8562;52.246;20.966;2023-04-01T06:35:02;4.40;;;3.77;;
16890;SDS011;8562;52.246;20.966;2023-04-01T06:37:50;5.70;;;3.90;;
16890;SDS011;8562;52.246;20.966;2023-04-01T06:40:21;6.00;;;3.83;;
16890;SDS011;8562;52.246;20.966;2023-04-01T06:49:02;5.47;;;3.90;;
16890;SDS011;8562;52.246;20.966;2023-04-01T06:51:41;4.33;;;3.13;;
16890;SDS011;8562;52.246;20.966;2023-04-01T06:54:38;5.77;;;4.13;;
16890;SDS011;8562;52.246;20.966;2023-04-01T06:57:08;6.27;;;4.63;;
16890;SDS011;8562;52.246;20.966;2023-04-01T06:59:35;8.17;;;4.23;;
16890;SDS011;8562;52.246;20.966;2023-04-01T07:04:46;4.13;;;3.10;;
16890;SDS011;8562;52.246;20.966;2023-04-01T07:07:15;3.10;;;2.67;;
16890;SDS011;8562;52.246;20.966;2023-04-01T07:09:53;3.30;;;2.63;;
16890;SDS011;8562;52.246;20.966;2023-04-01T07:15:22;5.10;;;3.23;;
16890;SDS011;8562;52.246;20.966;2023-04-01T07:18:02;2.33;;;2.00;;
16890;SDS011;8562;52.246;20.966;2023-04-01T07:20:29;3.00;;;2.40;;
16890;SDS011;8562;52.246;20.966;2023-04-01T07:23:00;2.87;;;2.50;;
16890;SDS011;8562;52.246;20.966;2023-04-01T07:25:44;4.70;;;3.77;;
16890;SDS011;8562;52.246;20.966;2023-04-01T07:28:36;6.03;;;5.10;;
16890;SDS011;8562;52.246;20.966;2023-04-01T07:36:14;12.03;;;7.90;;
16890;SDS011;8562;52.246;20.966;2023-04-01T07:38:59;11.43;;;8.07;;
16890;SDS011;8562;52.246;20.966;2023-04-01T07:41:58;14.90;;;9.83;;
16890;SDS011;8562;52.246;20.966;2023-04-01T07:47:03;12.00;;;8.97;;
16890;SDS011;8562;52.246;20.966;2023-04-01T07:49:35;11.00;;;8.80;;
16890;SDS011;8562;52.246;20.966;2023-04-01T07:54:49;14.27;;;9.10;;
16890;SDS011;8562;52.246;20.966;2023-04-01T07:57:20;13.27;;;9.00;;
16890;SDS011;8562;52.246;20.966;2023-04-01T08:00:35;17.57;;;10.07;;
16890;SDS011;8562;52.246;20.966;2023-04-01T08:02:44;10.80;;;8.53;;
16890;SDS011;8562;52.246;20.966;2023-04-01T08:10:32;9.17;;;7.87;;
16890;SDS011;8562;52.246;20.966;2023-04-01T08:13:26;11.90;;;7.60;;
16890;SDS011;8562;52.246;20.966;2023-04-01T08:16:18;10.87;;;8.07;;
16890;SDS011;8562;52.246;20.966;2023-04-01T08:21:25;9.70;;;7.87;;
16890;SDS011;8562;52.246;20.966;2023-04-01T08:23:52;11.47;;;8.43;;
16890;SDS011;8562;52.246;20.966;2023-04-01T08:26:39;11.83;;;8.23;;
16890;SDS011;8562;52.246;20.966;2023-04-01T08:29:16;10.07;;;7.73;;
16890;SDS011;8562;52.246;20.966;2023-04-01T08:31:45;11.17;;;7.43;;
16890;SDS011;8562;52.246;20.966;2023-04-01T08:34:20;9.60;;;7.10;;
16890;SDS011;8562;52.246;20.966;2023-04-01T08:36:50;7.17;;;5.37;;
16890;SDS011;8562;52.246;20.966;2023-04-01T08:39:18;5.10;;;4.43;;
16890;SDS011;8562;52.246;20.966;2023-04-01T09:01:08;5.03;;;3.30;;
16890;SDS011;8562;52.246;20.966;2023-04-01T09:27:57;5.73;;;4.30;;
16890;SDS011;8562;52.246;20.966;2023-04-01T09:33:17;5.47;;;3.73;;
16890;SDS011;8562;52.246;20.966;2023-04-01T09:36:01;5.27;;;3.23;;
16890;SDS011;8562;52.246;20.966;2023-04-01T09:38:42;3.50;;;2.70;;
16890;SDS011;8562;52.246;20.966;2023-04-01T09:41:27;3.27;;;2.80;;
16890;SDS011;8562;52.246;20.966;2023-04-01T09:44:14;4.10;;;3.27;;
16890;SDS011;8562;52.246;20.966;2023-04-01T09:52:36;3.27;;;2.50;;
16890;SDS011;8562;52.246;20.966;2023-04-01T10:16:01;2.43;;;2.23;;
16890;SDS011;8562;52.246;20.966;2023-04-01T10:18:39;4.00;;;2.80;;
16890;SDS011;8562;52.246;20.966;2023-04-01T10:40:08;2.90;;;2.60;;
16890;SDS011;8562;52.246;20.966;2023-04-01T10:50:50;4.07;;;2.93;;
16890;SDS011;8562;52.246;20.966;2023-04-01T10:53:34;5.93;;;3.10;;
16890;SDS011;8562;52.246;20.966;2023-04-01T11:05:35;3.77;;;3.07;;
16890;SDS011;8562;52.246;20.966;2023-04-01T11:16:05;3.30;;;2.97;;
16890;SDS011;8562;52.246;20.966;2023-04-01T11:26:15;2.77;;;2.47;;
16890;SDS011;8562;52.246;20.966;2023-04-01T11:34:11;3.70;;;2.67;;
16890;SDS011;8562;52.246;20.966;2023-04-01T11:42:05;5.17;;;3.10;;
16890;SDS011;8562;52.246;20.966;2023-04-01T11:50:18;3.87;;;2.97;;
16890;SDS011;8562;52.246;20.966;2023-04-01T11:53:10;4.53;;;3.30;;
16890;SDS011;8562;52.246;20.966;2023-04-01T12:06:05;3.57;;;2.17;;
16890;SDS011;8562;52.246;20.966;2023-04-01T12:13:35;2.83;;;1.53;;
16890;SDS011;8562;52.246;20.966;2023-04-01T12:16:08;1.60;;;1.00;;
16890;SDS011;8562;52.246;20.966;2023-04-01T12:18:43;1.67;;;1.20;;
16890;SDS011;8562;52.246;20.966;2023-04-01T12:26:08;2.00;;;1.40;;
16890;SDS011;8562;52.246;20.966;2023-04-01T12:31:13;1.50;;;1.40;;
16890;SDS011;8562;52.246;20.966;2023-04-01T12:36:10;1.90;;;1.77;;
16890;SDS011;8562;52.246;20.966;2023-04-01T12:38:43;3.47;;;2.10;;
16890;SDS011;8562;52.246;20.966;2023-04-01T12:41:24;2.40;;;1.90;;
16890;SDS011;8562;52.246;20.966;2023-04-01T12:46:42;2.57;;;1.50;;
16890;SDS011;8562;52.246;20.966;2023-04-01T12:49:17;1.83;;;1.50;;
16890;SDS011;8562;52.246;20.966;2023-04-01T13:04:48;2.50;;;1.50;;
16890;SDS011;8562;52.246;20.966;2023-04-01T13:12:46;1.10;;;0.90;;
16890;SDS011;8562;52.246;20.966;2023-04-01T13:22:46;2.13;;;1.93;;
16890;SDS011;8562;52.246;20.966;2023-04-01T13:27:44;1.90;;;1.80;;
16890;SDS011;8562;52.246;20.966;2023-04-01T13:35:14;4.13;;;1.83;;
16890;SDS011;8562;52.246;20.966;2023-04-01T13:40:23;3.87;;;2.30;;
16890;SDS011;8562;52.246;20.966;2023-04-01T14:06:27;2.07;;;1.53;;
16890;SDS011;8562;52.246;20.966;2023-04-01T14:11:22;2.60;;;1.70;;
16890;SDS011;8562;52.246;20.966;2023-04-01T14:13:56;1.97;;;1.87;;
16890;SDS011;8562;52.246;20.966;2023-04-01T14:19:21;1.60;;;1.50;;
16890;SDS011;8562;52.246;20.966;2023-04-01T14:22:03;2.63;;;1.23;;
16890;SDS011;8562;52.246;20.966;2023-04-01T14:35:18;1.23;;;0.80;;
16890;SDS011;8562;52.246;20.966;2023-04-01T14:38:04;1.30;;;1.07;;
16890;SDS011;8562;52.246;20.966;2023-04-01T14:46:30;2.77;;;1.43;;
16890;SDS011;8562;52.246;20.966;2023-04-01T14:49:02;1.63;;;1.53;;
16890;SDS011;8562;52.246;20.966;2023-04-01T14:51:32;1.40;;;1.30;;
16890;SDS011;8562;52.246;20.966;2023-04-01T14:56:35;2.30;;;1.90;;
16890;SDS011;8562;52.246;20.966;2023-04-01T14:59:00;1.70;;;1.60;;
16890;SDS011;8562;52.246;20.966;2023-04-01T15:08:56;1.70;;;1.60;;
16890;SDS011;8562;52.246;20.966;2023-04-01T15:17:16;2.23;;;2.07;;
16890;SDS011;8562;52.246;20.966;2023-04-01T15:30:34;1.63;;;1.53;;
16890;SDS011;8562;52.246;20.966;2023-04-01T15:35:50;1.60;;;1.50;;
16890;SDS011;8562;52.246;20.966;2023-04-01T15:38:41;1.93;;;1.47;;
16890;SDS011;8562;52.246;20.966;2023-04-01T15:51:41;1.67;;;1.37;;
16890;SDS011;8562;52.246;20.966;2023-04-01T16:01:47;3.23;;;1.30;;
16890;SDS011;8562;52.246;20.966;2023-04-01T16:16:47;3.53;;;2.20;;
16890;SDS011;8562;52.246;20.966;2023-04-01T16:19:22;1.93;;;1.67;;
16890;SDS011;8562;52.246;20.966;2023-04-01T16:22:02;2.23;;;1.40;;
16890;SDS011;8562;52.246;20.966;2023-04-01T16:24:31;3.83;;;1.60;;
16890;SDS011;8562;52.246;20.966;2023-04-01T16:27:05;2.87;;;1.53;;
16890;SDS011;8562;52.246;20.966;2023-04-01T16:34:46;2.43;;;1.70;;
16890;SDS011;8562;52.246;20.966;2023-04-01T16:37:36;1.77;;;1.07;;
16890;SDS011;8562;52.246;20.966;2023-04-01T16:40:13;2.33;;;1.40;;
16890;SDS011;8562;52.246;20.966;2023-04-01T16:47:46;1.30;;;1.20;;
16890;SDS011;8562;52.246;20.966;2023-04-01T16:50:22;2.17;;;1.60;;
16890;SDS011;8562;52.246;20.966;2023-04-01T16:53:25;1.77;;;1.57;;
16890;SDS011;8562;52.246;20.966;2023-04-01T16:55:55;1.57;;;1.40;;
16890;SDS011;8562;52.246;20.966;2023-04-01T16:58:35;1.23;;;1.10;;
16890;SDS011;8562;52.246;20.966;2023-04-01T17:01:09;1.20;;;1.10;;
16890;SDS011;8562;52.246;20.966;2023-04-01T17:03:41;1.80;;;1.20;;
16890;SDS011;8562;52.246;20.966;2023-04-01T17:11:21;1.93;;;1.03;;
16890;SDS011;8562;52.246;20.966;2023-04-01T17:34:30;3.90;;;2.50;;
16890;SDS011;8562;52.246;20.966;2023-04-01T17:42:20;3.57;;;3.17;;
16890;SDS011;8562;52.246;20.966;2023-04-01T17:47:16;4.30;;;2.70;;
16890;SDS011;8562;52.246;20.966;2023-04-01T17:49:45;3.17;;;2.50;;
16890;SDS011;8562;52.246;20.966;2023-04-01T17:52:18;3.33;;;2.60;;
16890;SDS011;8562;52.246;20.966;2023-04-01T17:54:55;2.87;;;2.60;;
16890;SDS011;8562;52.246;20.966;2023-04-01T18:14:08;4.37;;;3.50;;
16890;SDS011;8562;52.246;20.966;2023-04-01T18:18:47;3.90;;;3.27;;
16890;SDS011;8562;52.246;20.966;2023-04-01T18:23:50;4.90;;;3.53;;
16890;SDS011;8562;52.246;20.966;2023-04-01T18:26:32;6.77;;;3.53;;
16890;SDS011;8562;52.246;20.966;2023-04-01T18:29:15;3.90;;;3.57;;
16890;SDS011;8562;52.246;20.966;2023-04-01T18:37:12;5.67;;;3.93;;
16890;SDS011;8562;52.246;20.966;2023-04-01T18:39:40;7.17;;;4.40;;
16890;SDS011;8562;52.246;20.966;2023-04-01T18:42:08;4.93;;;3.97;;
16890;SDS011;8562;52.246;20.966;2023-04-01T18:44:46;5.93;;;4.17;;
16890;SDS011;8562;52.246;20.966;2023-04-01T18:52:09;9.20;;;3.80;;
16890;SDS011;8562;52.246;20.966;2023-04-01T18:54:43;5.87;;;4.70;;
16890;SDS011;8562;52.246;20.966;2023-04-01T18:57:19;5.53;;;4.63;;
16890;SDS011;8562;52.246;20.966;2023-04-01T19:00:04;6.47;;;4.30;;
16890;SDS011;8562;52.246;20.966;2023-04-01T19:02:43;7.27;;;3.93;;
16890;SDS011;8562;52.246;20.966;2023-04-01T19:05:11;5.67;;;4.20;;
16890;SDS011;8562;52.246;20.966;2023-04-01T19:15:37;5.00;;;4.50;;
16890;SDS011;8562;52.246;20.966;2023-04-01T19:20:53;4.07;;;3.57;;
16890;SDS011;8562;52.246;20.966;2023-04-01T19:23:39;5.33;;;3.77;;
16890;SDS011;8562;52.246;20.966;2023-04-01T19:26:11;6.97;;;4.27;;
16890;SDS011;8562;52.246;20.966;2023-04-01T19:28:55;5.20;;;4.17;;
16890;SDS011;8562;52.246;20.966;2023-04-01T19:39:09;5.37;;;3.73;;
16890;SDS011;8562;52.246;20.966;2023-04-01T19:49:48;4.70;;;4.10;;
16890;SDS011;8562;52.246;20.966;2023-04-01T19:52:37;6.07;;;4.07;;
16890;SDS011;8562;52.246;20.966;2023-04-01T19:57:47;6.50;;;4.20;;
16890;SDS011;8562;52.246;20.966;2023-04-01T20:00:24;9.23;;;5.43;;
16890;SDS011;8562;52.246;20.966;2023-04-01T20:10:38;4.37;;;3.80;;
16890;SDS011;8562;52.246;20.966;2023-04-01T20:13:13;5.50;;;4.67;;
16890;SDS011;8562;52.246;20.966;2023-04-01T20:15:43;4.73;;;3.33;;
16890;SDS011;8562;52.246;20.966;2023-04-01T20:21:45;4.43;;;3.90;;
16890;SDS011;8562;52.246;20.966;2023-04-01T20:26:06;5.63;;;4.07;;
16890;SDS011;8562;52.246;20.966;2023-04-01T20:28:37;4.83;;;3.63;;
16890;SDS011;8562;52.246;20.966;2023-04-01T20:44:24;5.07;;;3.73;;
16890;SDS011;8562;52.246;20.966;2023-04-01T20:50:06;3.80;;;3.30;;
16890;SDS011;8562;52.246;20.966;2023-04-01T20:52:38;6.50;;;3.87;;
16890;SDS011;8562;52.246;20.966;2023-04-01T20:57:38;3.70;;;3.40;;
16890;SDS011;8562;52.246;20.966;2023-04-01T21:08:05;5.17;;;3.17;;
16890;SDS011;8562;52.246;20.966;2023-04-01T21:10:36;4.60;;;3.10;;
16890;SDS011;8562;52.246;20.966;2023-04-01T21:15:52;3.37;;;3.07;;
16890;SDS011;8562;52.246;20.966;2023-04-01T21:18:24;5.23;;;3.27;;
16890;SDS011;8562;52.246;20.966;2023-04-01T21:21:10;7.27;;;3.43;;
16890;SDS011;8562;52.246;20.966;2023-04-01T21:45:33;4.30;;;3.70;;
16890;SDS011;8562;52.246;20.966;2023-04-01T22:06:00;4.03;;;2.73;;
16890;SDS011;8562;52.246;20.966;2023-04-01T22:08:33;5.50;;;3.07;;
16890;SDS011;8562;52.246;20.966;2023-04-01T22:10:59;3.57;;;3.27;;
16890;SDS011;8562;52.246;20.966;2023-04-01T22:13:35;4.47;;;3.27;;
16890;SDS011;8562;52.246;20.966;2023-04-01T22:17:07;5.27;;;3.07;;
16890;SDS011;8562;52.246;20.966;2023-04-01T22:26:59;3.37;;;2.40;;
16890;SDS011;8562;52.246;20.966;2023-04-01T22:29:36;3.67;;;3.07;;
16890;SDS011;8562;52.246;20.966;2023-04-01T22:32:24;3.43;;;2.70;;
16890;SDS011;8562;52.246;20.966;2023-04-01T22:34:52;6.70;;;3.47;;
16890;SDS011;8562;52.246;20.966;2023-04-01T22:42:35;4.33;;;3.63;;
16890;SDS011;8562;52.246;20.966;2023-04-01T22:50:08;4.80;;;3.10;;
16890;SDS011;8562;52.246;20.966;2023-04-01T22:52:40;5.10;;;3.20;;
16890;SDS011;8562;52.246;20.966;2023-04-01T22:55:11;5.30;;;3.30;;
16890;SDS011;8562;52.246;20.966;2023-04-01T23:00:05;5.97;;;2.70;;
16890;SDS011;8562;52.246;20.966;2023-04-01T23:02:36;3.40;;;3.07;;
16890;SDS011;8562;52.246;20.966;2023-04-01T23:05:03;6.27;;;3.37;;
16890;SDS011;8562;52.246;20.966;2023-04-01T23:09:55;6.23;;;3.30;;
16890;SDS011;8562;52.246;20.966;2023-04-01T23:12:21;4.10;;;3.13;;
16890;SDS011;8562;52.246;20.966;2023-04-01T23:14:58;3.30;;;2.93;;
16890;SDS011;8562;52.246;20.966;2023-04-01T23:20:00;3.70;;;2.90;;
16890;SDS011;8562;52.246;20.966;2023-04-01T23:27:32;4.57;;;3.10;;
16890;SDS011;8562;52.246;20.966;2023-04-01T23:30:00;4.57;;;2.77;;
16890;SDS011;8562;52.246;20.966;2023-04-01T23:32:25;3.73;;;3.10;;
16890;SDS011;8562;52.246;20.966;2023-04-01T23:34:58;3.50;;;2.73;;
16890;SDS011;8562;52.246;20.966;2023-04-01T23:37:24;3.97;;;2.47;;
16890;SDS011;8562;52.246;20.966;2023-04-01T23:39:50;4.03;;;2.50;;
16890;SDS011;8562;52.246;20.966;2023-04-01T23:42:23;2.93;;;2.50;;
16890;SDS011;8562;52.246;20.966;2023-04-01T23:44:51;3.63;;;2.40;;
16890;SDS011;8562;52.246;20.966;2023-04-01T23:47:18;2.33;;;2.10;;
16890;SDS011;8562;52.246;20.966;2023-04-01T23:49:46;4.37;;;2.73;;
16890;SDS011;8562;52.246;20.966;2023-04-01T23:52:17;3.57;;;2.47;;
16890;SDS011;8562;52.246;20.966;2023-04-01T23:57:17;3.83;;;3.03;;
16890;SDS011;8562;52.246;20.966;2023-04-01T23:59:43;2.60;;;2.40;;
